Time;durP1;ratioP1;P1;durP2;ratioP2;P2;SDS_P1;SDS_P2;PMS_P1;PMS_P2;Temp;Humidity;BMP_temperature;BMP_pressure;BME280_temperature;BME280_humidity;BME280_pressure;Samples;Min_cycle;Max_cycle;Signal;HPM_P1;HPM_P2
2022/04/23 00:00:33;;;;;;;9.53;7.43;;;14.50;99.90;;;;;;7386963;19;20138;-77
2022/04/23 00:03:00;;;;;;;9.60;7.53;;;14.20;99.90;;;;;;7389261;19;20198;-79
2022/04/23 00:05:25;;;;;;;10.65;8.13;;;14.10;99.90;;;;;;7390228;19;20167;-77
2022/04/23 00:07:51;;;;;;;10.50;8.05;;;14.20;99.90;;;;;;7388461;19;20142;-80
2022/04/23 00:10:17;;;;;;;11.27;7.50;;;14.20;99.90;;;;;;7393309;19;20134;-77
2022/04/23 00:12:46;;;;;;;8.77;7.22;;;14.10;99.90;;;;;;7390974;19;20123;-77
2022/04/23 00:15:12;;;;;;;10.05;7.85;;;13.90;99.90;;;;;;7387371;19;20625;-76
2022/04/23 00:17:38;;;;;;;8.38;7.03;;;14.00;99.90;;;;;;7392672;19;20154;-75
2022/04/23 00:20:05;;;;;;;8.50;7.60;;;13.90;99.90;;;;;;7387466;19;20118;-79
2022/04/23 00:22:31;;;;;;;9.07;7.50;;;13.80;99.90;;;;;;7389622;19;20139;-78
2022/04/23 00:24:58;;;;;;;8.18;7.15;;;13.50;99.90;;;;;;7390503;19;20158;-76
2022/04/23 00:27:24;;;;;;;8.88;6.97;;;13.50;99.90;;;;;;7387805;19;20455;-79
2022/04/23 00:29:50;;;;;;;8.05;6.78;;;13.60;99.90;;;;;;7385335;19;20233;-79
2022/04/23 00:32:15;;;;;;;7.97;7.10;;;13.30;99.90;;;;;;7386247;19;20146;-77
2022/04/23 00:34:41;;;;;;;8.48;6.38;;;13.50;99.90;;;;;;7389703;19;20142;-79
2022/04/23 00:37:07;;;;;;;8.93;7.10;;;13.40;99.90;;;;;;7386193;19;20493;-79
2022/04/23 00:39:33;;;;;;;7.95;6.72;;;13.60;99.90;;;;;;7389966;19;20590;-77
2022/04/23 00:42:00;;;;;;;7.75;6.70;;;13.50;99.90;;;;;;7390204;19;20149;-77
2022/04/23 00:44:26;;;;;;;8.75;7.25;;;13.60;99.90;;;;;;7396642;19;20183;-77
2022/04/23 00:46:52;;;;;;;10.77;7.53;;;13.90;99.90;;;;;;7391230;19;20135;-77
2022/04/23 00:49:18;;;;;;;9.75;7.38;;;13.90;99.90;;;;;;7386540;19;20135;-79
2022/04/23 00:51:44;;;;;;;7.82;7.03;;;14.00;99.90;;;;;;7386120;19;20127;-78
2022/04/23 00:54:10;;;;;;;8.98;7.00;;;14.00;99.90;;;;;;7386124;19;20851;-79
2022/04/23 00:56:40;;;;;;;8.20;6.82;;;13.70;99.90;;;;;;7386498;19;20123;-76
2022/04/23 00:59:11;;;;;;;7.90;6.72;;;13.90;99.90;;;;;;7387558;19;20141;-78
2022/04/23 01:01:40;;;;;;;12.13;7.20;;;14.00;99.90;;;;;;7384921;19;20139;-76
2022/04/23 01:04:06;;;;;;;9.23;7.07;;;14.00;99.90;;;;;;7387130;19;20134;-77
2022/04/23 01:06:34;;;;;;;8.38;6.72;;;14.00;99.90;;;;;;7392776;19;20507;-77
2022/04/23 01:09:08;;;;;;;8.87;6.40;;;14.00;99.90;;;;;;7393183;19;20130;-77
2022/04/23 01:11:35;;;;;;;7.57;6.47;;;13.80;99.90;;;;;;7385896;19;20131;-78
2022/04/23 01:14:01;;;;;;;8.47;6.57;;;13.90;99.90;;;;;;7389869;19;20177;-77
2022/04/23 01:16:28;;;;;;;9.48;6.57;;;13.90;99.90;;;;;;7387605;19;20217;-77
2022/04/23 01:18:53;;;;;;;8.70;7.03;;;13.80;99.90;;;;;;7385338;19;20158;-79
2022/04/23 01:21:20;;;;;;;9.40;6.55;;;13.80;99.90;;;;;;7387552;19;20146;-78
2022/04/23 01:23:52;;;;;;;7.35;5.90;;;13.60;99.90;;;;;;7389078;19;20210;-78
2022/04/23 01:26:29;;;;;;;7.38;6.20;;;13.80;99.90;;;;;;7388115;19;20127;-79
2022/04/23 01:28:56;;;;;;;9.00;7.00;;;13.70;99.90;;;;;;7384588;19;20145;-79
2022/04/23 01:31:22;;;;;;;9.73;6.93;;;13.80;99.90;;;;;;7393221;19;20147;-79
2022/04/23 01:33:48;;;;;;;6.80;6.00;;;13.80;99.90;;;;;;7396337;19;20131;-78
2022/04/23 01:36:14;;;;;;;8.43;6.32;;;13.80;99.90;;;;;;7384526;19;20135;-77
2022/04/23 01:38:44;;;;;;;8.07;5.55;;;13.60;99.90;;;;;;7387231;19;20135;-79
2022/04/23 01:41:10;;;;;;;8.43;6.05;;;13.60;99.90;;;;;;7384516;19;20134;-79
2022/04/23 01:43:36;;;;;;;7.53;6.15;;;13.70;99.90;;;;;;7385428;19;20146;-79
2022/04/23 01:46:03;;;;;;;9.02;6.35;;;13.70;99.90;;;;;;7386249;19;20139;-78
2022/04/23 01:48:28;;;;;;;7.27;5.80;;;13.80;99.90;;;;;;7385745;19;20642;-77
2022/04/23 01:50:55;;;;;;;6.80;5.07;;;13.70;99.90;;;;;;7387337;19;20143;-80
2022/04/23 01:53:22;;;;;;;6.97;5.73;;;13.70;99.90;;;;;;7385552;19;20143;-75
2022/04/23 01:55:54;;;;;;;7.00;5.13;;;13.70;99.90;;;;;;7399881;19;20145;-78
2022/04/23 01:58:21;;;;;;;6.80;5.88;;;13.70;99.90;;;;;;7390253;19;20119;-78
2022/04/23 02:00:48;;;;;;;7.40;5.57;;;13.60;99.90;;;;;;7385212;19;20146;-79
2022/04/23 02:03:14;;;;;;;6.43;5.72;;;13.60;99.90;;;;;;7386152;19;20143;-76
2022/04/23 02:05:39;;;;;;;6.33;5.10;;;13.50;99.90;;;;;;7384184;19;20594;-75
2022/04/23 02:08:06;;;;;;;9.53;5.63;;;13.30;99.90;;;;;;7385349;19;20130;-79
2022/04/23 02:10:32;;;;;;;6.60;5.47;;;13.40;99.90;;;;;;7391909;19;20154;-77
2022/04/23 02:12:58;;;;;;;6.35;5.55;;;13.40;99.90;;;;;;7391885;19;20135;-78
2022/04/23 02:15:24;;;;;;;7.23;5.60;;;13.50;99.90;;;;;;7392206;19;20158;-79
2022/04/23 02:17:50;;;;;;;7.82;5.88;;;13.30;99.90;;;;;;7396197;19;20134;-77
2022/04/23 02:20:16;;;;;;;6.93;5.95;;;13.30;99.90;;;;;;7396605;19;20147;-77
2022/04/23 02:22:47;;;;;;;6.47;5.75;;;13.30;99.90;;;;;;7398542;19;20142;-79
2022/04/23 02:25:13;;;;;;;8.37;6.60;;;13.40;99.90;;;;;;7391109;19;20135;-77
2022/04/23 02:27:46;;;;;;;7.80;6.43;;;13.40;99.90;;;;;;7392378;19;20134;-75
2022/04/23 02:30:14;;;;;;;7.63;6.20;;;13.20;99.90;;;;;;7392933;19;20146;-78
2022/04/23 02:32:41;;;;;;;9.00;6.30;;;13.10;99.90;;;;;;7390736;19;20127;-77
2022/04/23 02:35:08;;;;;;;8.60;7.20;;;13.30;99.90;;;;;;7392462;19;20131;-78
2022/04/23 02:37:34;;;;;;;8.37;7.00;;;13.40;99.90;;;;;;7391557;19;20132;-77
2022/04/23 02:40:07;;;;;;;8.10;7.18;;;13.40;99.90;;;;;;7390282;19;20122;-79
2022/04/23 02:42:33;;;;;;;8.30;7.00;;;13.20;99.90;;;;;;7396268;19;20215;-79
2022/04/23 02:45:01;;;;;;;8.73;7.07;;;13.10;99.90;;;;;;7394462;19;20160;-78
2022/04/23 02:47:44;;;;;;;7.67;6.80;;;13.20;99.90;;;;;;7393670;19;20566;-77
2022/04/23 02:50:11;;;;;;;9.23;7.80;;;13.00;99.90;;;;;;7392108;19;20509;-77
2022/04/23 02:52:39;;;;;;;8.73;7.33;;;12.90;99.90;;;;;;7392071;19;20121;-74
2022/04/23 02:55:06;;;;;;;9.63;7.32;;;13.00;99.90;;;;;;7389931;19;20138;-77
2022/04/23 02:57:31;;;;;;;10.10;7.63;;;13.10;99.90;;;;;;7389820;19;20496;-75
2022/04/23 02:59:57;;;;;;;10.45;6.72;;;13.10;99.90;;;;;;7390343;19;20166;-77
2022/04/23 03:02:23;;;;;;;7.93;7.00;;;13.10;99.90;;;;;;7397673;19;20130;-75
2022/04/23 03:04:49;;;;;;;8.37;6.63;;;13.10;99.90;;;;;;7394340;19;20118;-77
2022/04/23 03:07:17;;;;;;;8.30;7.37;;;13.10;99.90;;;;;;7388470;19;20119;-77
2022/04/23 03:09:42;;;;;;;7.88;6.97;;;13.00;99.90;;;;;;7390688;19;20133;-77
2022/04/23 03:12:09;;;;;;;7.77;6.83;;;12.90;99.90;;;;;;7389508;19;20146;-74
2022/04/23 03:14:35;;;;;;;9.93;7.67;;;12.80;99.90;;;;;;7389423;19;20130;-76
2022/04/23 03:17:00;;;;;;;9.10;7.30;;;12.90;99.90;;;;;;7392495;19;20127;-75
2022/04/23 03:19:26;;;;;;;9.83;7.67;;;12.90;99.90;;;;;;7390900;19;20206;-76
2022/04/23 03:21:53;;;;;;;8.40;6.93;;;12.90;99.90;;;;;;7387636;19;20133;-75
2022/04/23 03:24:18;;;;;;;10.50;7.57;;;12.50;99.90;;;;;;7390389;19;20127;-74
2022/04/23 03:26:46;;;;;;;7.73;6.60;;;12.70;99.90;;;;;;7400110;19;20441;-77
2022/04/23 03:29:12;;;;;;;8.40;7.57;;;12.80;99.90;;;;;;7391647;19;20134;-76
2022/04/23 03:31:37;;;;;;;8.33;6.50;;;12.80;99.90;;;;;;7391617;19;20141;-77
2022/04/23 03:34:03;;;;;;;8.30;7.40;;;12.80;99.90;;;;;;7389144;19;20146;-75
2022/04/23 03:36:29;;;;;;;9.40;7.77;;;12.60;99.90;;;;;;7389726;19;20127;-77
2022/04/23 03:38:54;;;;;;;8.43;7.00;;;11.90;99.90;;;;;;7390707;19;20485;-77
2022/04/23 03:41:20;;;;;;;8.85;7.35;;;11.80;99.90;;;;;;7386700;19;20460;-74
2022/04/23 03:43:46;;;;;;;8.50;7.37;;;12.00;99.90;;;;;;7389112;19;20633;-77
2022/04/23 03:46:12;;;;;;;9.23;7.72;;;12.20;99.90;;;;;;7395615;19;20134;-75
2022/04/23 03:48:38;;;;;;;8.53;7.53;;;12.40;99.90;;;;;;7393624;19;20138;-78
2022/04/23 03:51:03;;;;;;;10.45;7.82;;;12.60;99.90;;;;;;7390601;19;20154;-76
2022/04/23 03:53:29;;;;;;;7.60;6.47;;;12.60;99.90;;;;;;7387919;19;20134;-77
2022/04/23 03:55:55;;;;;;;8.20;6.90;;;12.60;99.90;;;;;;7389042;19;20130;-75
2022/04/23 03:58:21;;;;;;;7.90;6.47;;;12.60;99.90;;;;;;7388751;19;20138;-76
2022/04/23 04:00:47;;;;;;;9.07;7.27;;;12.50;99.90;;;;;;7386892;19;20126;-77
2022/04/23 04:03:13;;;;;;;8.60;7.00;;;12.40;99.90;;;;;;7387999;19;20164;-75
2022/04/23 04:05:38;;;;;;;7.23;6.50;;;12.40;99.90;;;;;;7387491;19;20155;-75
2022/04/23 04:08:05;;;;;;;7.00;6.07;;;12.30;99.90;;;;;;7387182;19;20135;-75
2022/04/23 04:10:30;;;;;;;8.00;5.67;;;12.30;99.90;;;;;;7390837;19;20542;-77
2022/04/23 04:12:56;;;;;;;6.63;5.60;;;12.20;99.90;;;;;;7390520;19;20160;-74
2022/04/23 04:15:23;;;;;;;6.47;5.77;;;12.30;99.90;;;;;;7387655;19;20156;-75
2022/04/23 04:17:55;;;;;;;5.83;5.23;;;12.30;99.90;;;;;;7386414;19;20544;-75
2022/04/23 04:20:22;;;;;;;5.70;5.00;;;12.20;99.90;;;;;;7388298;19;20119;-75
2022/04/23 04:22:48;;;;;;;6.03;5.17;;;12.20;99.90;;;;;;7387406;19;20146;-75
2022/04/23 04:25:14;;;;;;;5.83;5.23;;;12.20;99.90;;;;;;7388325;19;20135;-75
2022/04/23 04:27:41;;;;;;;6.33;5.17;;;12.30;99.90;;;;;;7387567;19;20135;-77
2022/04/23 04:30:08;;;;;;;5.93;5.33;;;12.30;99.90;;;;;;7387687;19;20143;-77
2022/04/23 04:32:35;;;;;;;6.80;5.30;;;12.10;99.90;;;;;;7389837;19;20141;-77
2022/04/23 04:35:01;;;;;;;6.30;5.70;;;12.10;99.90;;;;;;7391126;19;20160;-77
2022/04/23 04:37:29;;;;;;;5.80;5.20;;;12.00;99.90;;;;;;7386989;19;20564;-77
2022/04/23 04:39:55;;;;;;;5.90;5.10;;;12.10;99.90;;;;;;7388091;19;20130;-77
2022/04/23 04:42:20;;;;;;;5.73;4.97;;;12.10;99.90;;;;;;7386057;19;20158;-75
2022/04/23 04:44:47;;;;;;;6.87;5.87;;;12.10;99.90;;;;;;7385815;19;20126;-75
2022/04/23 04:47:12;;;;;;;6.83;4.80;;;12.20;99.90;;;;;;7389342;19;20161;-75
2022/04/23 04:49:39;;;;;;;6.33;5.40;;;12.10;99.90;;;;;;7385789;19;20146;-77
2022/04/23 04:52:05;;;;;;;6.80;5.23;;;12.10;99.90;;;;;;7387437;19;20142;-76
2022/04/23 04:54:31;;;;;;;7.03;5.80;;;12.20;99.90;;;;;;7393001;19;20134;-76
2022/04/23 04:56:57;;;;;;;7.47;6.23;;;12.20;99.90;;;;;;7388297;19;20130;-74
2022/04/23 04:59:24;;;;;;;6.73;5.83;;;12.10;99.90;;;;;;7386940;19;20331;-76
2022/04/23 05:01:50;;;;;;;7.13;5.67;;;12.10;99.90;;;;;;7384747;19;20206;-77
2022/04/23 05:04:17;;;;;;;7.10;5.77;;;12.30;99.90;;;;;;7386193;19;20141;-78
2022/04/23 05:06:43;;;;;;;7.47;5.80;;;12.30;99.90;;;;;;7386512;19;20788;-75
2022/04/23 05:09:09;;;;;;;6.67;5.67;;;12.30;99.90;;;;;;7387674;19;20158;-76
2022/04/23 05:11:35;;;;;;;7.53;6.47;;;12.30;99.90;;;;;;7387433;19;20130;-75
2022/04/23 05:14:01;;;;;;;8.00;6.17;;;12.40;99.90;;;;;;7386724;19;20707;-77
2022/04/23 05:16:26;;;;;;;6.93;5.47;;;12.30;99.90;;;;;;7389048;19;20210;-74
2022/04/23 05:18:52;;;;;;;6.17;5.43;;;12.40;99.90;;;;;;7385822;19;20154;-77
2022/04/23 05:21:18;;;;;;;7.77;5.83;;;12.40;99.90;;;;;;7383374;19;20123;-77
2022/04/23 05:23:44;;;;;;;7.53;5.80;;;12.30;99.90;;;;;;7389582;19;20494;-74
2022/04/23 05:26:10;;;;;;;7.20;5.63;;;12.20;99.90;;;;;;7388794;19;20133;-76
2022/04/23 05:28:36;;;;;;;7.77;6.10;;;12.30;99.90;;;;;;7388901;19;20151;-77
2022/04/23 05:31:03;;;;;;;7.97;6.27;;;12.40;99.90;;;;;;7395756;19;20873;-75
2022/04/23 05:33:29;;;;;;;7.17;5.83;;;12.40;99.90;;;;;;7394643;19;20142;-75
2022/04/23 05:35:55;;;;;;;9.33;6.63;;;12.50;99.90;;;;;;7388941;19;20986;-76
2022/04/23 05:38:22;;;;;;;7.23;5.63;;;12.50;99.90;;;;;;7390063;19;20541;-77
2022/04/23 05:40:49;;;;;;;7.20;5.60;;;12.60;99.90;;;;;;7388756;19;20143;-78
2022/04/23 05:43:15;;;;;;;7.90;6.10;;;12.60;99.90;;;;;;7387311;19;20135;-76
2022/04/23 05:45:42;;;;;;;7.03;5.27;;;12.70;99.90;;;;;;7396193;19;20134;-75
2022/04/23 05:48:08;;;;;;;6.73;5.57;;;12.60;99.90;;;;;;7397498;19;20756;-75
2022/04/23 05:50:34;;;;;;;6.17;5.50;;;12.70;99.90;;;;;;7397170;19;20151;-76
2022/04/23 05:52:59;;;;;;;7.37;5.30;;;12.60;99.90;;;;;;7394354;19;20134;-77
2022/04/23 05:55:25;;;;;;;6.80;5.87;;;12.60;99.90;;;;;;7398611;19;20221;-77
2022/04/23 05:57:51;;;;;;;7.03;5.97;;;12.70;99.90;;;;;;7399109;19;20133;-75
2022/04/23 06:00:18;;;;;;;6.60;5.40;;;12.70;99.90;;;;;;7395156;19;20162;-76
2022/04/23 06:02:44;;;;;;;8.17;6.20;;;12.60;99.90;;;;;;7395971;19;20172;-77
2022/04/23 06:05:13;;;;;;;6.77;5.47;;;12.60;99.90;;;;;;7395261;19;20586;-77
2022/04/23 06:07:39;;;;;;;7.13;5.90;;;12.60;99.90;;;;;;7395502;19;20130;-76
2022/04/23 06:10:06;;;;;;;5.93;5.33;;;12.60;99.90;;;;;;7394138;19;20145;-75
2022/04/23 06:12:32;;;;;;;6.47;5.17;;;12.60;99.90;;;;;;7395763;19;20138;-74
2022/04/23 06:14:58;;;;;;;7.00;5.73;;;12.60;99.90;;;;;;7393677;19;20155;-77
2022/04/23 06:17:28;;;;;;;6.20;5.20;;;12.70;99.90;;;;;;7396430;19;20556;-75
2022/04/23 06:19:55;;;;;;;7.27;5.40;;;12.70;99.90;;;;;;7395717;19;20643;-75
2022/04/23 06:22:25;;;;;;;6.73;5.83;;;12.70;99.90;;;;;;7393304;19;20150;-75
2022/04/23 06:24:51;;;;;;;7.00;5.43;;;12.80;99.90;;;;;;7395384;19;20623;-75
2022/04/23 06:27:18;;;;;;;6.55;5.20;;;12.70;99.90;;;;;;7392680;19;20139;-79
2022/04/23 06:29:44;;;;;;;6.70;5.43;;;12.70;99.90;;;;;;7392984;19;20154;-75
2022/04/23 06:32:10;;;;;;;5.87;5.13;;;12.80;99.90;;;;;;7393664;19;20453;-75
2022/04/23 06:34:40;;;;;;;5.40;4.90;;;12.80;99.90;;;;;;7395441;19;20133;-75
2022/04/23 06:37:07;;;;;;;5.53;4.70;;;12.90;99.90;;;;;;7393467;19;20147;-75
2022/04/23 06:39:32;;;;;;;5.50;4.50;;;12.90;99.90;;;;;;7398362;19;20131;-75
2022/04/23 06:41:58;;;;;;;5.00;4.32;;;13.00;99.90;;;;;;7390870;19;20143;-76
2022/04/23 06:44:26;;;;;;;5.13;4.30;;;12.90;99.90;;;;;;7390915;19;20154;-77
2022/04/23 06:46:52;;;;;;;6.00;4.80;;;13.00;99.90;;;;;;7395052;19;20138;-75
2022/04/23 06:49:18;;;;;;;5.20;4.23;;;13.10;99.90;;;;;;7394453;19;20662;-75
2022/04/23 06:51:43;;;;;;;6.10;4.30;;;13.00;99.90;;;;;;7393256;19;20123;-79
2022/04/23 06:54:10;;;;;;;5.90;4.83;;;13.00;99.90;;;;;;7393344;19;20157;-75
2022/04/23 06:56:37;;;;;;;4.77;3.97;;;13.20;99.90;;;;;;7392352;19;20138;-78
2022/04/23 06:59:04;;;;;;;4.63;4.03;;;13.20;99.90;;;;;;7393899;19;20502;-77
2022/04/23 07:01:30;;;;;;;4.53;4.07;;;13.20;99.90;;;;;;7394883;19;20510;-73
2022/04/23 07:03:55;;;;;;;4.73;4.03;;;13.20;99.90;;;;;;7394749;19;20130;-79
2022/04/23 07:06:21;;;;;;;4.53;3.87;;;13.00;99.90;;;;;;7388545;19;20129;-78
2022/04/23 07:08:47;;;;;;;4.50;3.97;;;12.90;99.90;;;;;;7390568;19;20151;-77
2022/04/23 07:11:13;;;;;;;4.33;3.93;;;13.10;99.90;;;;;;7393772;19;20135;-78
2022/04/23 07:13:39;;;;;;;5.18;4.50;;;13.30;99.90;;;;;;7389681;19;20238;-74
2022/04/23 07:16:05;;;;;;;4.77;4.10;;;13.30;99.90;;;;;;7391509;19;20143;-78
2022/04/23 07:18:35;;;;;;;5.20;4.37;;;13.30;99.90;;;;;;7392855;19;20223;-74
2022/04/23 07:21:00;;;;;;;4.80;4.03;;;13.30;99.90;;;;;;7388093;19;20146;-78
2022/04/23 07:26:11;;;;;;;4.93;4.10;;;13.40;99.90;;;;;;7397159;19;20138;-75
2022/04/23 07:28:38;;;;;;;4.33;3.93;;;13.40;99.90;;;;;;7393691;19;20148;-78
2022/04/23 07:31:05;;;;;;;4.93;4.10;;;13.60;99.90;;;;;;7394355;19;20598;-79
2022/04/23 07:39:00;;;;;;;7.60;4.73;;;13.60;99.90;;;;;;7393400;19;20134;-77
2022/04/23 07:41:27;;;;;;;5.30;4.53;;;13.70;99.90;;;;;;7389983;19;20138;-76
2022/04/23 07:43:54;;;;;;;4.80;4.20;;;13.70;99.90;;;;;;7390452;19;20146;-76
2022/04/23 07:46:19;;;;;;;4.40;4.00;;;13.60;99.90;;;;;;7393684;19;20133;-78
2022/04/23 07:48:46;;;;;;;4.73;4.00;;;13.40;99.90;;;;;;7392354;19;20131;-76
2022/04/23 07:51:12;;;;;;;4.70;4.10;;;13.60;99.90;;;;;;7391324;19;20134;-74
2022/04/23 07:53:38;;;;;;;5.10;3.83;;;13.90;99.90;;;;;;7387566;19;20151;-76
2022/04/23 07:56:05;;;;;;;4.67;4.17;;;14.10;99.90;;;;;;7390122;19;20503;-81
2022/04/23 07:58:31;;;;;;;5.00;3.90;;;13.80;99.90;;;;;;7393358;19;20210;-80
2022/04/23 08:00:57;;;;;;;5.97;4.57;;;13.90;99.90;;;;;;7393550;19;20558;-77
2022/04/23 08:03:22;;;;;;;5.63;4.00;;;13.90;99.90;;;;;;7395963;19;20202;-78
2022/04/23 08:05:48;;;;;;;4.40;3.97;;;13.90;99.90;;;;;;7396470;19;20137;-78
2022/04/23 08:08:17;;;;;;;4.77;3.80;;;14.00;99.90;;;;;;7398583;19;20154;-76
2022/04/23 08:10:44;;;;;;;5.15;4.05;;;14.00;99.90;;;;;;7392191;19;20135;-79
2022/04/23 08:13:11;;;;;;;10.85;6.68;;;14.10;99.90;;;;;;7391328;19;20202;-80
2022/04/23 08:15:37;;;;;;;18.50;10.57;;;14.30;99.90;;;;;;7395404;19;20649;-76
2022/04/23 08:18:03;;;;;;;19.10;11.10;;;14.20;99.90;;;;;;7389446;19;20194;-76
2022/04/23 08:20:32;;;;;;;23.60;11.67;;;14.30;99.90;;;;;;7388339;19;20238;-78
2022/04/23 08:22:57;;;;;;;17.80;10.70;;;14.30;99.90;;;;;;7389807;19;20230;-77
2022/04/23 08:25:23;;;;;;;7.53;5.57;;;14.30;99.90;;;;;;7391728;19;20259;-78
2022/04/23 08:27:54;;;;;;;21.63;11.03;;;14.30;99.90;;;;;;7401638;19;20161;-82
2022/04/23 08:30:37;;;;;;;13.27;8.00;;;14.30;99.90;;;;;;7403723;19;20151;-77
2022/04/23 08:33:04;;;;;;;7.80;4.85;;;14.30;99.90;;;;;;7394241;19;20130;-77
2022/04/23 08:35:31;;;;;;;8.50;5.93;;;14.20;99.90;;;;;;7389819;19;20218;-80
2022/04/23 08:37:56;;;;;;;9.82;5.78;;;14.10;99.90;;;;;;7390020;19;20146;-80
2022/04/23 08:40:22;;;;;;;12.13;7.23;;;14.20;99.90;;;;;;7390336;19;20149;-77
2022/04/23 08:42:48;;;;;;;6.22;4.63;;;14.10;99.90;;;;;;7392580;19;20158;-78
2022/04/23 08:45:14;;;;;;;7.68;5.15;;;14.20;99.90;;;;;;7391153;19;20142;-81
2022/04/23 08:47:46;;;;;;;11.13;7.33;;;14.30;99.90;;;;;;7391489;19;20138;-81
2022/04/23 08:50:14;;;;;;;9.60;6.28;;;14.50;99.90;;;;;;7395560;19;20155;-77
2022/04/23 08:52:48;;;;;;;8.47;5.60;;;14.60;99.90;;;;;;7394595;19;20134;-79
2022/04/23 08:55:16;;;;;;;9.77;5.85;;;14.60;99.90;;;;;;7388938;19;20146;-76
2022/04/23 08:57:43;;;;;;;9.57;5.97;;;14.80;99.90;;;;;;7389450;19;20130;-77
2022/04/23 09:00:14;;;;;;;7.93;5.38;;;14.80;99.90;;;;;;7388702;19;20169;-80
2022/04/23 09:02:41;;;;;;;5.03;4.28;;;14.90;99.90;;;;;;7390710;19;20235;-77
2022/04/23 09:05:07;;;;;;;6.55;4.68;;;14.70;99.90;;;;;;7385328;19;20145;-76
2022/04/23 09:07:33;;;;;;;9.60;5.97;;;14.70;99.90;;;;;;7383107;19;20203;-81
2022/04/23 09:09:59;;;;;;;4.82;3.83;;;14.90;99.90;;;;;;7396675;19;20188;-81
2022/04/23 09:12:28;;;;;;;7.10;4.82;;;14.80;99.90;;;;;;7394872;19;20138;-79
2022/04/23 09:15:05;;;;;;;6.45;4.68;;;14.80;99.90;;;;;;7386245;19;20233;-79
2022/04/23 09:25:45;;;;;;;7.40;4.78;;;14.60;99.90;;;;;;7398529;19;20138;-76
2022/04/23 09:28:22;;;;;;;10.00;4.65;;;14.70;99.90;;;;;;7400092;19;20150;-80
2022/04/23 09:30:50;;;;;;;10.30;5.20;;;14.60;99.90;;;;;;7406778;19;20150;-77
2022/04/23 09:33:17;;;;;;;5.90;4.40;;;14.70;99.90;;;;;;7402780;19;20156;-79
2022/04/23 09:35:56;;;;;;;6.30;4.10;;;14.80;99.90;;;;;;7398332;19;20153;-77
2022/04/23 09:38:22;;;;;;;4.78;3.70;;;14.70;99.90;;;;;;7394086;19;20146;-80
2022/04/23 09:40:53;;;;;;;5.10;4.07;;;14.80;99.90;;;;;;7393556;19;20147;-78
2022/04/23 09:43:29;;;;;;;5.80;4.28;;;14.90;99.90;;;;;;7393219;19;20139;-81
2022/04/23 09:46:13;;;;;;;6.47;4.07;;;14.80;99.90;;;;;;7394114;19;20214;-80
2022/04/23 09:48:43;;;;;;;7.10;4.32;;;14.90;99.90;;;;;;7396018;19;20135;-81
2022/04/23 09:51:26;;;;;;;5.38;3.97;;;14.70;99.90;;;;;;7404054;19;20227;-81
2022/04/23 09:53:53;;;;;;;6.20;3.30;;;14.70;99.90;;;;;;7407228;19;20146;-81
2022/04/23 09:56:26;;;;;;;5.65;3.47;;;14.80;99.90;;;;;;7393823;19;20130;-78
2022/04/23 09:58:52;;;;;;;4.28;3.08;;;14.80;99.90;;;;;;7392531;19;20164;-78
2022/04/23 10:01:22;;;;;;;5.38;4.63;;;14.80;99.90;;;;;;7393333;19;20223;-78
2022/04/23 10:03:53;;;;;;;3.60;3.25;;;14.90;99.90;;;;;;7393916;19;20154;-78
2022/04/23 10:06:21;;;;;;;3.75;3.08;;;14.80;99.90;;;;;;7392764;19;20134;-77
2022/04/23 10:08:57;;;;;;;4.43;3.10;;;14.90;99.90;;;;;;7392976;19;20134;-81
2022/04/23 10:11:30;;;;;;;4.35;3.17;;;14.90;99.90;;;;;;7395001;19;20149;-81
2022/04/23 10:14:02;;;;;;;3.80;2.90;;;14.90;99.90;;;;;;7396964;19;20610;-81
2022/04/23 10:16:33;;;;;;;3.38;3.08;;;15.00;99.90;;;;;;7396613;19;20138;-81
2022/04/23 10:19:00;;;;;;;4.32;3.33;;;15.10;99.90;;;;;;7401030;19;20142;-77
2022/04/23 10:21:48;;;;;;;4.50;2.83;;;15.10;99.90;;;;;;7392970;19;20130;-81
2022/04/23 10:24:22;;;;;;;3.87;2.83;;;15.10;99.90;;;;;;7394477;19;20135;-78
2022/04/23 10:26:56;;;;;;;7.85;3.50;;;15.00;99.90;;;;;;7393841;19;20162;-83
2022/04/23 10:29:23;;;;;;;4.47;3.28;;;14.90;99.90;;;;;;7393785;19;20183;-82
2022/04/23 10:32:14;;;;;;;4.18;3.20;;;14.80;99.90;;;;;;7397082;19;20138;-78
2022/04/23 10:34:41;;;;;;;3.75;2.58;;;14.80;99.90;;;;;;7397780;19;20147;-80
2022/04/23 10:37:22;;;;;;;3.40;2.50;;;15.00;99.90;;;;;;7398430;19;20582;-81
2022/04/23 10:39:54;;;;;;;3.33;2.90;;;15.10;99.90;;;;;;7395493;19;20134;-80
2022/04/23 10:42:21;;;;;;;4.05;2.88;;;15.20;99.90;;;;;;7396400;19;20521;-79
2022/04/23 10:44:49;;;;;;;3.20;2.60;;;15.10;99.90;;;;;;7397293;19;20151;-77
2022/04/23 10:47:30;;;;;;;3.67;2.70;;;15.30;99.90;;;;;;7393098;19;20135;-79
2022/04/23 10:50:23;;;;;;;4.72;2.75;;;15.40;99.90;;;;;;7393449;19;20197;-80
2022/04/23 10:52:54;;;;;;;6.25;2.60;;;15.40;99.90;;;;;;7395246;19;20155;-79
2022/04/23 10:55:21;;;;;;;3.72;3.10;;;15.40;99.90;;;;;;7394323;19;20131;-76
2022/04/23 10:57:54;;;;;;;6.15;3.42;;;15.50;99.90;;;;;;7400129;19;20139;-77
2022/04/23 11:00:27;;;;;;;3.67;3.10;;;15.40;99.90;;;;;;7394959;19;20147;-77
2022/04/23 11:03:07;;;;;;;4.63;3.53;;;15.40;99.90;;;;;;7392216;19;20138;-76
2022/04/23 11:14:37;;;;;;;5.18;3.45;;;15.30;99.90;;;;;;7390679;19;20152;-80
2022/04/23 11:17:03;;;;;;;3.72;2.88;;;15.40;99.90;;;;;;7393363;19;20142;-76
2022/04/23 11:19:30;;;;;;;4.55;3.47;;;15.50;99.90;;;;;;7391326;19;20134;-79
2022/04/23 11:21:55;;;;;;;4.32;3.55;;;15.40;99.90;;;;;;7396588;19;20629;-77
2022/04/23 11:24:24;;;;;;;4.40;3.70;;;15.40;99.90;;;;;;7389357;19;20127;-79
2022/04/23 11:26:51;;;;;;;4.55;3.20;;;15.40;99.90;;;;;;7391316;19;20156;-79
2022/04/23 11:29:21;;;;;;;4.75;3.42;;;15.30;99.90;;;;;;7388583;19;20174;-78
2022/04/23 11:31:56;;;;;;;3.75;3.08;;;15.20;99.90;;;;;;7390833;19;20131;-76
2022/04/23 11:34:22;;;;;;;4.50;3.65;;;15.40;99.90;;;;;;7392539;19;20142;-78
2022/04/23 11:36:48;;;;;;;4.53;3.83;;;15.50;99.90;;;;;;7392939;19;20198;-78
2022/04/23 11:39:14;;;;;;;4.95;3.70;;;15.50;99.90;;;;;;7390491;19;20214;-76
2022/04/23 11:41:58;;;;;;;3.92;3.30;;;15.50;99.90;;;;;;7387210;19;20580;-77
2022/04/23 11:47:17;;;;;;;4.43;3.63;;;15.70;99.90;;;;;;7391238;19;20595;-75
2022/04/23 11:49:42;;;;;;;4.75;3.55;;;15.70;99.90;;;;;;7392251;19;20127;-75
2022/04/23 11:52:11;;;;;;;4.78;4.03;;;15.50;99.90;;;;;;7390713;19;20145;-78
2022/04/23 11:54:48;;;;;;;4.05;3.10;;;15.60;99.90;;;;;;7392134;19;20506;-75
2022/04/23 11:57:16;;;;;;;5.47;3.83;;;15.80;99.90;;;;;;7405714;19;20130;-76
2022/04/23 11:59:44;;;;;;;4.53;3.70;;;15.90;99.90;;;;;;7392841;19;20164;-76
2022/04/23 12:02:17;;;;;;;4.20;3.60;;;15.90;99.90;;;;;;7387936;19;20135;-76
2022/04/23 12:04:45;;;;;;;6.80;3.83;;;16.00;99.90;;;;;;7390631;19;20138;-76
2022/04/23 12:07:11;;;;;;;4.90;3.50;;;16.00;99.90;;;;;;7389182;19;20134;-78
2022/04/23 12:09:51;;;;;;;4.95;4.20;;;15.90;99.90;;;;;;7390209;19;20601;-75
2022/04/23 12:12:25;;;;;;;4.38;3.97;;;15.80;99.90;;;;;;7387601;19;20160;-76
2022/04/23 12:15:04;;;;;;;3.88;3.30;;;15.90;99.90;;;;;;7388166;19;20134;-79
2022/04/23 12:17:32;;;;;;;4.93;3.47;;;15.90;99.90;;;;;;7390452;19;20164;-76
2022/04/23 12:20:09;;;;;;;5.90;3.90;;;16.00;99.90;;;;;;7395762;19;21372;-76
2022/04/23 12:22:35;;;;;;;4.05;3.22;;;15.90;99.90;;;;;;7388509;19;20610;-79
2022/04/23 12:25:09;;;;;;;4.53;3.70;;;15.90;99.90;;;;;;7390009;19;20138;-77
2022/04/23 12:27:57;;;;;;;7.05;4.32;;;16.00;99.90;;;;;;7394219;19;20502;-78
2022/04/23 12:42:05;;;;;;;5.07;4.00;;;16.20;99.90;;;;;;7392812;19;20156;-79
2022/04/23 12:44:40;;;;;;;4.15;3.53;;;16.10;99.90;;;;;;7390317;19;20161;-78
2022/04/23 12:47:16;;;;;;;4.10;3.70;;;16.10;99.90;;;;;;7389459;19;20619;-78
2022/04/23 12:50:00;;;;;;;5.30;4.00;;;16.00;99.90;;;;;;7388767;19;20126;-79
2022/04/23 12:52:29;;;;;;;5.13;3.65;;;16.10;99.90;;;;;;7385918;19;20166;-77
2022/04/23 12:55:29;;;;;;;4.13;3.20;;;16.10;99.90;;;;;;7389816;19;20135;-77
2022/04/23 12:58:08;;;;;;;4.35;3.35;;;16.20;99.90;;;;;;7385624;19;20154;-77
2022/04/23 13:00:40;;;;;;;4.80;3.67;;;16.10;99.90;;;;;;7388786;19;20506;-76
2022/04/23 13:03:21;;;;;;;4.32;3.80;;;16.20;99.90;;;;;;7389136;19;20513;-76
2022/04/23 13:05:47;;;;;;;4.88;3.60;;;16.20;99.90;;;;;;7386590;19;20133;-76
2022/04/23 13:11:24;;;;;;;4.60;3.83;;;16.00;99.90;;;;;;7385225;19;20503;-79
2022/04/23 13:13:47;;;;;;;5.90;4.00;;;15.90;99.90;;;;;;7385483;19;20273;-76
2022/04/23 13:16:14;;;;;;;4.93;3.97;;;16.00;99.90;;;;;;7388066;19;20194;-77
2022/04/23 13:18:40;;;;;;;4.60;4.15;;;16.20;99.90;;;;;;7384992;19;20123;-79
2022/04/23 13:21:07;;;;;;;5.28;3.90;;;16.20;99.90;;;;;;7383137;19;20147;-77
2022/04/23 13:23:33;;;;;;;3.90;3.33;;;16.20;99.90;;;;;;7386420;19;20114;-76
2022/04/23 13:26:00;;;;;;;5.10;3.97;;;16.10;99.90;;;;;;7385073;19;20130;-76
2022/04/23 13:28:26;;;;;;;6.68;4.50;;;16.10;99.90;;;;;;7383048;19;20497;-78
2022/04/23 13:30:52;;;;;;;5.32;4.30;;;16.20;99.90;;;;;;7387002;19;20131;-75
2022/04/23 13:33:18;;;;;;;4.38;3.72;;;16.30;99.90;;;;;;7386118;19;20559;-75